sensor_id;sensor_type;location;lat;lon;timestamp;P1;durP1;ratioP1;P2;durP2;ratioP2
20056;SDS011;10189;49.546;7.906;2022-08-21T00:00:05;10.13;;;5.78;;
20056;SDS011;10189;49.546;7.906;2022-08-21T00:02:43;8.60;;;5.50;;
20056;SDS011;10189;49.546;7.906;2022-08-21T00:05:20;8.13;;;5.32;;
20056;SDS011;10189;49.546;7.906;2022-08-21T00:07:47;10.18;;;5.25;;
20056;SDS011;10189;49.546;7.906;2022-08-21T00:10:14;9.70;;;5.90;;
20056;SDS011;10189;49.546;7.906;2022-08-21T00:12:41;8.30;;;6.13;;
20056;SDS011;10189;49.546;7.906;2022-08-21T00:15:09;10.30;;;5.72;;
20056;SDS011;10189;49.546;7.906;2022-08-21T00:17:37;9.18;;;6.10;;
20056;SDS011;10189;49.546;7.906;2022-08-21T00:20:05;8.95;;;5.13;;
20056;SDS011;10189;49.546;7.906;2022-08-21T00:22:34;8.48;;;6.32;;
20056;SDS011;10189;49.546;7.906;2022-08-21T00:25:01;10.90;;;6.13;;
20056;SDS011;10189;49.546;7.906;2022-08-21T00:27:29;9.05;;;6.03;;
20056;SDS011;10189;49.546;7.906;2022-08-21T00:29:55;7.70;;;6.25;;
20056;SDS011;10189;49.546;7.906;2022-08-21T00:32:22;9.30;;;6.13;;
20056;SDS011;10189;49.546;7.906;2022-08-21T00:34:51;11.68;;;5.82;;
20056;SDS011;10189;49.546;7.906;2022-08-21T00:37:18;7.78;;;5.93;;
20056;SDS011;10189;49.546;7.906;2022-08-21T00:39:44;11.73;;;6.18;;
20056;SDS011;10189;49.546;7.906;2022-08-21T00:42:11;10.05;;;6.35;;
20056;SDS011;10189;49.546;7.906;2022-08-21T00:44:46;8.13;;;6.13;;
20056;SDS011;10189;49.546;7.906;2022-08-21T00:47:15;8.32;;;5.80;;
20056;SDS011;10189;49.546;7.906;2022-08-21T00:49:44;11.20;;;6.40;;
20056;SDS011;10189;49.546;7.906;2022-08-21T00:52:12;8.27;;;6.43;;
20056;SDS011;10189;49.546;7.906;2022-08-21T00:54:47;8.57;;;6.13;;
20056;SDS011;10189;49.546;7.906;2022-08-21T00:57:17;9.05;;;5.88;;
20056;SDS011;10189;49.546;7.906;2022-08-21T00:59:52;11.55;;;6.97;;
20056;SDS011;10189;49.546;7.906;2022-08-21T01:02:21;10.35;;;6.22;;
20056;SDS011;10189;49.546;7.906;2022-08-21T01:04:47;9.13;;;5.70;;
20056;SDS011;10189;49.546;7.906;2022-08-21T01:07:14;10.70;;;6.15;;
20056;SDS011;10189;49.546;7.906;2022-08-21T01:09:41;9.23;;;6.43;;
20056;SDS011;10189;49.546;7.906;2022-08-21T01:12:08;9.55;;;5.82;;
20056;SDS011;10189;49.546;7.906;2022-08-21T01:14:36;8.98;;;6.05;;
20056;SDS011;10189;49.546;7.906;2022-08-21T01:17:02;13.43;;;6.10;;
20056;SDS011;10189;49.546;7.906;2022-08-21T01:19:29;9.95;;;6.60;;
20056;SDS011;10189;49.546;7.906;2022-08-21T01:21:56;7.35;;;5.55;;
20056;SDS011;10189;49.546;7.906;2022-08-21T01:24:22;8.07;;;6.30;;
20056;SDS011;10189;49.546;7.906;2022-08-21T01:26:49;11.05;;;6.55;;
20056;SDS011;10189;49.546;7.906;2022-08-21T01:32:08;10.18;;;6.00;;
20056;SDS011;10189;49.546;7.906;2022-08-21T01:34:42;10.18;;;6.38;;
20056;SDS011;10189;49.546;7.906;2022-08-21T01:37:11;10.55;;;6.15;;
20056;SDS011;10189;49.546;7.906;2022-08-21T01:39:38;9.98;;;6.15;;
20056;SDS011;10189;49.546;7.906;2022-08-21T01:42:06;8.18;;;6.53;;
20056;SDS011;10189;49.546;7.906;2022-08-21T01:44:32;8.30;;;6.38;;
20056;SDS011;10189;49.546;7.906;2022-08-21T01:46:59;9.15;;;5.90;;
20056;SDS011;10189;49.546;7.906;2022-08-21T01:49:29;8.57;;;6.03;;
20056;SDS011;10189;49.546;7.906;2022-08-21T01:51:55;9.15;;;6.43;;
20056;SDS011;10189;49.546;7.906;2022-08-21T01:54:21;9.13;;;6.65;;
20056;SDS011;10189;49.546;7.906;2022-08-21T01:56:49;8.77;;;6.55;;
20056;SDS011;10189;49.546;7.906;2022-08-21T01:59:18;9.47;;;6.13;;
20056;SDS011;10189;49.546;7.906;2022-08-21T02:01:45;11.85;;;6.55;;
20056;SDS011;10189;49.546;7.906;2022-08-21T02:04:11;8.25;;;6.40;;
20056;SDS011;10189;49.546;7.906;2022-08-21T02:06:37;7.25;;;5.80;;
20056;SDS011;10189;49.546;7.906;2022-08-21T02:09:04;9.27;;;6.43;;
20056;SDS011;10189;49.546;7.906;2022-08-21T02:11:33;10.18;;;6.53;;
20056;SDS011;10189;49.546;7.906;2022-08-21T02:14:00;10.02;;;6.30;;
20056;SDS011;10189;49.546;7.906;2022-08-21T02:16:27;8.50;;;6.15;;
20056;SDS011;10189;49.546;7.906;2022-08-21T02:18:53;8.80;;;5.93;;
20056;SDS011;10189;49.546;7.906;2022-08-21T02:21:19;8.73;;;6.75;;
20056;SDS011;10189;49.546;7.906;2022-08-21T02:23:45;10.10;;;6.43;;
20056;SDS011;10189;49.546;7.906;2022-08-21T02:26:11;9.50;;;6.40;;
20056;SDS011;10189;49.546;7.906;2022-08-21T02:28:38;10.05;;;6.50;;
20056;SDS011;10189;49.546;7.906;2022-08-21T02:31:05;11.55;;;7.95;;
20056;SDS011;10189;49.546;7.906;2022-08-21T02:33:31;9.77;;;7.00;;
20056;SDS011;10189;49.546;7.906;2022-08-21T02:35:58;9.55;;;7.00;;
20056;SDS011;10189;49.546;7.906;2022-08-21T02:38:28;7.68;;;6.15;;
20056;SDS011;10189;49.546;7.906;2022-08-21T02:40:58;9.65;;;6.43;;
20056;SDS011;10189;49.546;7.906;2022-08-21T02:43:25;12.38;;;6.53;;
20056;SDS011;10189;49.546;7.906;2022-08-21T02:45:54;10.10;;;6.20;;
20056;SDS011;10189;49.546;7.906;2022-08-21T02:48:24;10.05;;;6.28;;
20056;SDS011;10189;49.546;7.906;2022-08-21T02:51:04;12.38;;;6.70;;
20056;SDS011;10189;49.546;7.906;2022-08-21T02:53:38;11.38;;;6.72;;
20056;SDS011;10189;49.546;7.906;2022-08-21T02:56:07;10.23;;;6.55;;
20056;SDS011;10189;49.546;7.906;2022-08-21T02:58:38;12.43;;;6.82;;
20056;SDS011;10189;49.546;7.906;2022-08-21T03:01:08;11.23;;;6.43;;
20056;SDS011;10189;49.546;7.906;2022-08-21T03:03:35;10.65;;;6.82;;
20056;SDS011;10189;49.546;7.906;2022-08-21T03:06:05;8.57;;;6.60;;
20056;SDS011;10189;49.546;7.906;2022-08-21T03:08:33;9.52;;;7.05;;
20056;SDS011;10189;49.546;7.906;2022-08-21T03:11:00;9.73;;;6.88;;
20056;SDS011;10189;49.546;7.906;2022-08-21T03:13:26;11.15;;;7.38;;
20056;SDS011;10189;49.546;7.906;2022-08-21T03:15:53;14.55;;;6.82;;
20056;SDS011;10189;49.546;7.906;2022-08-21T03:18:19;10.43;;;7.03;;
20056;SDS011;10189;49.546;7.906;2022-08-21T03:20:46;11.40;;;7.00;;
20056;SDS011;10189;49.546;7.906;2022-08-21T03:23:12;9.65;;;7.22;;
20056;SDS011;10189;49.546;7.906;2022-08-21T03:25:40;10.63;;;7.03;;
20056;SDS011;10189;49.546;7.906;2022-08-21T03:28:08;10.07;;;7.30;;
20056;SDS011;10189;49.546;7.906;2022-08-21T03:30:38;8.05;;;7.00;;
20056;SDS011;10189;49.546;7.906;2022-08-21T03:33:04;9.95;;;7.30;;
20056;SDS011;10189;49.546;7.906;2022-08-21T03:35:30;8.55;;;7.07;;
20056;SDS011;10189;49.546;7.906;2022-08-21T03:37:56;8.05;;;6.72;;
20056;SDS011;10189;49.546;7.906;2022-08-21T03:40:22;9.05;;;6.85;;
20056;SDS011;10189;49.546;7.906;2022-08-21T03:42:49;9.23;;;7.30;;
20056;SDS011;10189;49.546;7.906;2022-08-21T03:45:16;12.63;;;7.80;;
20056;SDS011;10189;49.546;7.906;2022-08-21T03:50:26;8.98;;;6.88;;
20056;SDS011;10189;49.546;7.906;2022-08-21T03:52:55;10.13;;;6.93;;
20056;SDS011;10189;49.546;7.906;2022-08-21T03:55:22;10.45;;;7.05;;
20056;SDS011;10189;49.546;7.906;2022-08-21T03:57:50;10.52;;;6.85;;
20056;SDS011;10189;49.546;7.906;2022-08-21T04:00:17;11.18;;;7.63;;
20056;SDS011;10189;49.546;7.906;2022-08-21T04:02:44;9.98;;;7.22;;
20056;SDS011;10189;49.546;7.906;2022-08-21T04:05:12;11.30;;;7.10;;
20056;SDS011;10189;49.546;7.906;2022-08-21T04:07:52;8.68;;;7.07;;
20056;SDS011;10189;49.546;7.906;2022-08-21T04:10:23;9.45;;;7.43;;
20056;SDS011;10189;49.546;7.906;2022-08-21T04:12:52;9.52;;;7.07;;
20056;SDS011;10189;49.546;7.906;2022-08-21T04:15:19;11.50;;;7.75;;
20056;SDS011;10189;49.546;7.906;2022-08-21T04:17:46;13.90;;;7.28;;
20056;SDS011;10189;49.546;7.906;2022-08-21T04:20:13;12.02;;;7.13;;
20056;SDS011;10189;49.546;7.906;2022-08-21T04:22:41;9.88;;;7.63;;
20056;SDS011;10189;49.546;7.906;2022-08-21T04:25:07;12.27;;;7.97;;
20056;SDS011;10189;49.546;7.906;2022-08-21T04:27:34;9.68;;;7.10;;
20056;SDS011;10189;49.546;7.906;2022-08-21T04:30:00;11.57;;;7.38;;
20056;SDS011;10189;49.546;7.906;2022-08-21T04:32:26;14.68;;;7.53;;
20056;SDS011;10189;49.546;7.906;2022-08-21T04:34:59;13.60;;;7.47;;
20056;SDS011;10189;49.546;7.906;2022-08-21T04:37:29;10.68;;;7.55;;
20056;SDS011;10189;49.546;7.906;2022-08-21T04:39:55;9.88;;;7.50;;
20056;SDS011;10189;49.546;7.906;2022-08-21T04:42:26;12.50;;;8.15;;
20056;SDS011;10189;49.546;7.906;2022-08-21T04:44:53;15.10;;;7.73;;
20056;SDS011;10189;49.546;7.906;2022-08-21T04:47:21;10.98;;;7.32;;
20056;SDS011;10189;49.546;7.906;2022-08-21T04:49:48;11.02;;;6.72;;
20056;SDS011;10189;49.546;7.906;2022-08-21T04:52:16;9.88;;;7.00;;
20056;SDS011;10189;49.546;7.906;2022-08-21T04:54:47;11.85;;;7.45;;
20056;SDS011;10189;49.546;7.906;2022-08-21T04:57:16;11.18;;;7.38;;
20056;SDS011;10189;49.546;7.906;2022-08-21T04:59:45;12.40;;;7.50;;
20056;SDS011;10189;49.546;7.906;2022-08-21T05:02:16;10.80;;;7.55;;
20056;SDS011;10189;49.546;7.906;2022-08-21T05:04:47;11.13;;;7.30;;
20056;SDS011;10189;49.546;7.906;2022-08-21T05:07:27;11.07;;;7.55;;
20056;SDS011;10189;49.546;7.906;2022-08-21T05:09:56;10.40;;;7.45;;
20056;SDS011;10189;49.546;7.906;2022-08-21T05:12:24;13.30;;;7.50;;
20056;SDS011;10189;49.546;7.906;2022-08-21T05:14:50;11.32;;;7.90;;
20056;SDS011;10189;49.546;7.906;2022-08-21T05:17:17;9.13;;;6.65;;
20056;SDS011;10189;49.546;7.906;2022-08-21T05:19:43;9.95;;;7.15;;
20056;SDS011;10189;49.546;7.906;2022-08-21T05:22:08;7.85;;;6.50;;
20056;SDS011;10189;49.546;7.906;2022-08-21T05:24:34;9.90;;;6.60;;
20056;SDS011;10189;49.546;7.906;2022-08-21T05:27:00;10.73;;;6.75;;
20056;SDS011;10189;49.546;7.906;2022-08-21T05:29:26;9.82;;;6.85;;
20056;SDS011;10189;49.546;7.906;2022-08-21T05:31:55;8.73;;;6.40;;
20056;SDS011;10189;49.546;7.906;2022-08-21T05:34:21;9.20;;;6.22;;
20056;SDS011;10189;49.546;7.906;2022-08-21T05:36:49;8.25;;;5.95;;
20056;SDS011;10189;49.546;7.906;2022-08-21T05:39:15;8.75;;;5.93;;
20056;SDS011;10189;49.546;7.906;2022-08-21T05:41:41;7.25;;;5.95;;
20056;SDS011;10189;49.546;7.906;2022-08-21T05:44:07;8.18;;;5.90;;
20056;SDS011;10189;49.546;7.906;2022-08-21T05:46:33;8.95;;;5.90;;
20056;SDS011;10189;49.546;7.906;2022-08-21T05:48:59;9.68;;;5.72;;
20056;SDS011;10189;49.546;7.906;2022-08-21T05:51:25;8.05;;;5.72;;
20056;SDS011;10189;49.546;7.906;2022-08-21T05:53:50;7.20;;;6.07;;
20056;SDS011;10189;49.546;7.906;2022-08-21T05:56:16;6.95;;;5.45;;
20056;SDS011;10189;49.546;7.906;2022-08-21T05:58:42;8.30;;;6.10;;
20056;SDS011;10189;49.546;7.906;2022-08-21T06:01:08;9.45;;;5.88;;
20056;SDS011;10189;49.546;7.906;2022-08-21T06:03:36;8.23;;;5.57;;
20056;SDS011;10189;49.546;7.906;2022-08-21T06:06:05;7.68;;;5.40;;
20056;SDS011;10189;49.546;7.906;2022-08-21T06:08:32;9.50;;;6.32;;
20056;SDS011;10189;49.546;7.906;2022-08-21T06:10:59;9.02;;;5.90;;
20056;SDS011;10189;49.546;7.906;2022-08-21T06:13:27;10.38;;;6.68;;
20056;SDS011;10189;49.546;7.906;2022-08-21T06:16:01;9.10;;;6.05;;
20056;SDS011;10189;49.546;7.906;2022-08-21T06:18:37;8.88;;;6.57;;
20056;SDS011;10189;49.546;7.906;2022-08-21T06:21:05;7.53;;;6.20;;
20056;SDS011;10189;49.546;7.906;2022-08-21T06:23:32;10.75;;;7.40;;
20056;SDS011;10189;49.546;7.906;2022-08-21T06:26:00;9.43;;;7.30;;
20056;SDS011;10189;49.546;7.906;2022-08-21T06:28:27;8.05;;;7.18;;
20056;SDS011;10189;49.546;7.906;2022-08-21T06:30:53;8.13;;;6.28;;
20056;SDS011;10189;49.546;7.906;2022-08-21T06:33:19;11.02;;;7.13;;
20056;SDS011;10189;49.546;7.906;2022-08-21T06:35:45;10.13;;;6.53;;
20056;SDS011;10189;49.546;7.906;2022-08-21T06:38:11;8.85;;;6.32;;
20056;SDS011;10189;49.546;7.906;2022-08-21T06:40:37;7.22;;;5.90;;
20056;SDS011;10189;49.546;7.906;2022-08-21T06:43:11;9.60;;;6.10;;
20056;SDS011;10189;49.546;7.906;2022-08-21T06:45:41;6.97;;;5.20;;
20056;SDS011;10189;49.546;7.906;2022-08-21T06:48:09;7.20;;;5.20;;
20056;SDS011;10189;49.546;7.906;2022-08-21T06:50:35;7.03;;;5.43;;
20056;SDS011;10189;49.546;7.906;2022-08-21T06:53:03;6.35;;;5.53;;
20056;SDS011;10189;49.546;7.906;2022-08-21T06:55:33;6.88;;;4.88;;
20056;SDS011;10189;49.546;7.906;2022-08-21T06:57:59;8.70;;;5.43;;
20056;SDS011;10189;49.546;7.906;2022-08-21T07:00:27;7.32;;;4.72;;
20056;SDS011;10189;49.546;7.906;2022-08-21T07:02:54;9.20;;;5.00;;
20056;SDS011;10189;49.546;7.906;2022-08-21T07:05:20;7.47;;;4.68;;
20056;SDS011;10189;49.546;7.906;2022-08-21T07:07:47;7.60;;;4.95;;
20056;SDS011;10189;49.546;7.906;2022-08-21T07:10:14;6.53;;;4.65;;
20056;SDS011;10189;49.546;7.906;2022-08-21T07:12:40;7.63;;;4.90;;
20056;SDS011;10189;49.546;7.906;2022-08-21T07:15:06;8.10;;;4.97;;
20056;SDS011;10189;49.546;7.906;2022-08-21T07:17:33;7.32;;;4.55;;
20056;SDS011;10189;49.546;7.906;2022-08-21T07:19:59;6.53;;;4.82;;
20056;SDS011;10189;49.546;7.906;2022-08-21T07:22:25;7.75;;;5.20;;
20056;SDS011;10189;49.546;7.906;2022-08-21T07:24:53;8.13;;;4.45;;
20056;SDS011;10189;49.546;7.906;2022-08-21T07:27:20;5.82;;;4.32;;
20056;SDS011;10189;49.546;7.906;2022-08-21T07:29:46;8.02;;;4.40;;
20056;SDS011;10189;49.546;7.906;2022-08-21T07:32:12;7.97;;;4.60;;
20056;SDS011;10189;49.546;7.906;2022-08-21T07:34:40;7.78;;;5.18;;
20056;SDS011;10189;49.546;7.906;2022-08-21T07:37:06;7.13;;;4.80;;
20056;SDS011;10189;49.546;7.906;2022-08-21T07:39:32;9.02;;;4.90;;
20056;SDS011;10189;49.546;7.906;2022-08-21T07:41:58;11.77;;;5.35;;
20056;SDS011;10189;49.546;7.906;2022-08-21T07:44:24;7.90;;;5.18;;
20056;SDS011;10189;49.546;7.906;2022-08-21T07:46:50;7.32;;;5.43;;
20056;SDS011;10189;49.546;7.906;2022-08-21T07:49:15;7.20;;;4.65;;
20056;SDS011;10189;49.546;7.906;2022-08-21T07:51:41;9.18;;;5.13;;
20056;SDS011;10189;49.546;7.906;2022-08-21T07:54:07;8.75;;;4.65;;
20056;SDS011;10189;49.546;7.906;2022-08-21T07:56:34;7.97;;;4.85;;
20056;SDS011;10189;49.546;7.906;2022-08-21T07:58:59;8.73;;;5.00;;
20056;SDS011;10189;49.546;7.906;2022-08-21T08:01:27;8.30;;;4.80;;
20056;SDS011;10189;49.546;7.906;2022-08-21T08:03:54;10.68;;;4.75;;
20056;SDS011;10189;49.546;7.906;2022-08-21T08:06:21;5.63;;;4.28;;
20056;SDS011;10189;49.546;7.906;2022-08-21T08:08:48;7.65;;;5.03;;
20056;SDS011;10189;49.546;7.906;2022-08-21T08:11:14;10.43;;;4.80;;
20056;SDS011;10189;49.546;7.906;2022-08-21T08:13:41;7.78;;;4.60;;
20056;SDS011;10189;49.546;7.906;2022-08-21T08:16:11;9.32;;;4.72;;
20056;SDS011;10189;49.546;7.906;2022-08-21T08:18:37;9.73;;;4.95;;
20056;SDS011;10189;49.546;7.906;2022-08-21T08:21:04;11.20;;;4.47;;
20056;SDS011;10189;49.546;7.906;2022-08-21T08:23:31;9.77;;;4.60;;
20056;SDS011;10189;49.546;7.906;2022-08-21T08:25:58;7.07;;;4.15;;
20056;SDS011;10189;49.546;7.906;2022-08-21T08:28:24;7.70;;;4.40;;
20056;SDS011;10189;49.546;7.906;2022-08-21T08:30:52;8.13;;;4.15;;
20056;SDS011;10189;49.546;7.906;2022-08-21T08:33:18;8.57;;;4.00;;
20056;SDS011;10189;49.546;7.906;2022-08-21T08:35:45;7.65;;;3.58;;
20056;SDS011;10189;49.546;7.906;2022-08-21T08:38:15;11.40;;;3.70;;
20056;SDS011;10189;49.546;7.906;2022-08-21T08:46:02;10.55;;;3.30;;
20056;SDS011;10189;49.546;7.906;2022-08-21T08:48:41;5.88;;;3.17;;
20056;SDS011;10189;49.546;7.906;2022-08-21T08:54:08;5.63;;;3.00;;
20056;SDS011;10189;49.546;7.906;2022-08-21T08:56:42;9.07;;;3.53;;
20056;SDS011;10189;49.546;7.906;2022-08-21T08:59:15;6.20;;;3.38;;
20056;SDS011;10189;49.546;7.906;2022-08-21T09:01:47;7.30;;;3.03;;
20056;SDS011;10189;49.546;7.906;2022-08-21T09:04:13;7.60;;;3.55;;
20056;SDS011;10189;49.546;7.906;2022-08-21T09:06:52;7.45;;;3.25;;
20056;SDS011;10189;49.546;7.906;2022-08-21T09:10:03;7.28;;;3.28;;
20056;SDS011;10189;49.546;7.906;2022-08-21T09:15:36;6.93;;;2.92;;
20056;SDS011;10189;49.546;7.906;2022-08-21T09:24:29;5.97;;;2.38;;
20056;SDS011;10189;49.546;7.906;2022-08-21T09:27:22;7.05;;;2.53;;
20056;SDS011;10189;49.546;7.906;2022-08-21T09:29:49;7.50;;;2.90;;
20056;SDS011;10189;49.546;7.906;2022-08-21T09:34:58;8.05;;;3.42;;
20056;SDS011;10189;49.546;7.906;2022-08-21T09:37:32;5.72;;;2.83;;
20056;SDS011;10189;49.546;7.906;2022-08-21T09:40:15;7.38;;;3.10;;
20056;SDS011;10189;49.546;7.906;2022-08-21T09:42:57;6.82;;;2.90;;
20056;SDS011;10189;49.546;7.906;2022-08-21T09:45:27;7.35;;;2.90;;
20056;SDS011;10189;49.546;7.906;2022-08-21T09:47:54;5.72;;;3.00;;
20056;SDS011;10189;49.546;7.906;2022-08-21T09:50:24;8.70;;;2.92;;
20056;SDS011;10189;49.546;7.906;2022-08-21T09:52:53;8.07;;;2.95;;
20056;SDS011;10189;49.546;7.906;2022-08-21T09:55:31;5.47;;;3.13;;
20056;SDS011;10189;49.546;7.906;2022-08-21T09:58:45;10.63;;;3.35;;
20056;SDS011;10189;49.546;7.906;2022-08-21T10:01:15;7.10;;;3.30;;
20056;SDS011;10189;49.546;7.906;2022-08-21T10:06:20;7.55;;;3.33;;
20056;SDS011;10189;49.546;7.906;2022-08-21T10:09:14;8.52;;;3.63;;
20056;SDS011;10189;49.546;7.906;2022-08-21T10:11:47;6.50;;;3.15;;
20056;SDS011;10189;49.546;7.906;2022-08-21T10:17:43;6.03;;;3.50;;
20056;SDS011;10189;49.546;7.906;2022-08-21T10:29:09;5.97;;;3.10;;
20056;SDS011;10189;49.546;7.906;2022-08-21T10:43:51;6.95;;;3.35;;
20056;SDS011;10189;49.546;7.906;2022-08-21T10:47:00;6.22;;;3.08;;
20056;SDS011;10189;49.546;7.906;2022-08-21T10:49:39;8.90;;;3.10;;
20056;SDS011;10189;49.546;7.906;2022-08-21T10:55:33;4.60;;;2.30;;
20056;SDS011;10189;49.546;7.906;2022-08-21T10:58:10;6.03;;;2.60;;
20056;SDS011;10189;49.546;7.906;2022-08-21T11:00:51;6.43;;;2.47;;
20056;SDS011;10189;49.546;7.906;2022-08-21T11:03:27;5.88;;;2.60;;
20056;SDS011;10189;49.546;7.906;2022-08-21T11:06:27;4.47;;;2.55;;
20056;SDS011;10189;49.546;7.906;2022-08-21T11:08:58;6.80;;;2.83;;
20056;SDS011;10189;49.546;7.906;2022-08-21T11:11:50;7.03;;;3.10;;
20056;SDS011;10189;49.546;7.906;2022-08-21T11:14:24;5.88;;;3.10;;
20056;SDS011;10189;49.546;7.906;2022-08-21T11:17:53;8.88;;;2.67;;
20056;SDS011;10189;49.546;7.906;2022-08-21T11:24:03;4.32;;;3.00;;
20056;SDS011;10189;49.546;7.906;2022-08-21T11:26:49;5.82;;;3.05;;
20056;SDS011;10189;49.546;7.906;2022-08-21T11:29:37;7.40;;;3.00;;
20056;SDS011;10189;49.546;7.906;2022-08-21T11:32:24;5.20;;;2.60;;
20056;SDS011;10189;49.546;7.906;2022-08-21T11:39:22;5.63;;;2.70;;
20056;SDS011;10189;49.546;7.906;2022-08-21T11:47:41;6.40;;;2.90;;
20056;SDS011;10189;49.546;7.906;2022-08-21T11:50:47;5.78;;;2.85;;
20056;SDS011;10189;49.546;7.906;2022-08-21T11:53:38;4.47;;;2.72;;
20056;SDS011;10189;49.546;7.906;2022-08-21T11:56:29;5.70;;;2.97;;
20056;SDS011;10189;49.546;7.906;2022-08-21T11:59:11;6.45;;;3.05;;
20056;SDS011;10189;49.546;7.906;2022-08-21T12:01:48;6.82;;;3.00;;
20056;SDS011;10189;49.546;7.906;2022-08-21T12:06:54;7.38;;;2.97;;
20056;SDS011;10189;49.546;7.906;2022-08-21T12:11:59;5.68;;;3.00;;
20056;SDS011;10189;49.546;7.906;2022-08-21T12:23:17;4.43;;;2.50;;
20056;SDS011;10189;49.546;7.906;2022-08-21T12:28:36;6.35;;;2.55;;
20056;SDS011;10189;49.546;7.906;2022-08-21T12:31:04;5.60;;;2.60;;
20056;SDS011;10189;49.546;7.906;2022-08-21T12:33:43;4.82;;;2.80;;
20056;SDS011;10189;49.546;7.906;2022-08-21T12:36:20;9.25;;;3.17;;
20056;SDS011;10189;49.546;7.906;2022-08-21T12:38:56;7.32;;;3.25;;
20056;SDS011;10189;49.546;7.906;2022-08-21T12:41:35;6.72;;;2.83;;
20056;SDS011;10189;49.546;7.906;2022-08-21T12:44:41;5.45;;;2.88;;
20056;SDS011;10189;49.546;7.906;2022-08-21T12:47:34;6.75;;;3.17;;
20056;SDS011;10189;49.546;7.906;2022-08-21T12:50:24;4.45;;;3.15;;
20056;SDS011;10189;49.546;7.906;2022-08-21T12:53:09;5.28;;;2.85;;
20056;SDS011;10189;49.546;7.906;2022-08-21T12:56:02;4.93;;;2.83;;
20056;SDS011;10189;49.546;7.906;2022-08-21T12:58:35;6.82;;;3.35;;
20056;SDS011;10189;49.546;7.906;2022-08-21T13:01:06;5.97;;;3.13;;
20056;SDS011;10189;49.546;7.906;2022-08-21T13:03:46;5.35;;;2.88;;
20056;SDS011;10189;49.546;7.906;2022-08-21T13:06:14;5.60;;;3.28;;
20056;SDS011;10189;49.546;7.906;2022-08-21T13:08:43;5.67;;;2.87;;
20056;SDS011;10189;49.546;7.906;2022-08-21T13:11:14;5.07;;;3.13;;
20056;SDS011;10189;49.546;7.906;2022-08-21T13:13:48;8.45;;;3.03;;
20056;SDS011;10189;49.546;7.906;2022-08-21T13:16:20;8.20;;;2.80;;
20056;SDS011;10189;49.546;7.906;2022-08-21T13:19:03;5.75;;;2.70;;
20056;SDS011;10189;49.546;7.906;2022-08-21T13:21:33;5.43;;;3.10;;
20056;SDS011;10189;49.546;7.906;2022-08-21T13:26:49;4.47;;;2.58;;
20056;SDS011;10189;49.546;7.906;2022-08-21T13:29:18;8.70;;;2.70;;
20056;SDS011;10189;49.546;7.906;2022-08-21T13:31:53;4.35;;;2.50;;
20056;SDS011;10189;49.546;7.906;2022-08-21T13:34:24;4.15;;;2.53;;
20056;SDS011;10189;49.546;7.906;2022-08-21T13:37:07;6.18;;;2.80;;
20056;SDS011;10189;49.546;7.906;2022-08-21T13:39:36;5.28;;;3.08;;
20056;SDS011;10189;49.546;7.906;2022-08-21T13:42:04;5.85;;;3.03;;
20056;SDS011;10189;49.546;7.906;2022-08-21T13:44:42;5.78;;;2.72;;
20056;SDS011;10189;49.546;7.906;2022-08-21T13:47:12;4.93;;;3.00;;
20056;SDS011;10189;49.546;7.906;2022-08-21T13:49:45;6.05;;;2.85;;
20056;SDS011;10189;49.546;7.906;2022-08-21T13:52:33;6.88;;;2.53;;
20056;SDS011;10189;49.546;7.906;2022-08-21T13:55:13;3.95;;;2.53;;
20056;SDS011;10189;49.546;7.906;2022-08-21T13:57:42;4.25;;;2.90;;
20056;SDS011;10189;49.546;7.906;2022-08-21T14:02:40;4.18;;;2.67;;
20056;SDS011;10189;49.546;7.906;2022-08-21T14:05:30;4.50;;;2.70;;
20056;SDS011;10189;49.546;7.906;2022-08-21T14:10:42;5.35;;;2.72;;
20056;SDS011;10189;49.546;7.906;2022-08-21T14:18:52;5.95;;;2.58;;
20056;SDS011;10189;49.546;7.906;2022-08-21T14:21:35;5.20;;;2.53;;
20056;SDS011;10189;49.546;7.906;2022-08-21T14:24:10;5.18;;;2.80;;
20056;SDS011;10189;49.546;7.906;2022-08-21T14:26:54;5.72;;;2.63;;
20056;SDS011;10189;49.546;7.906;2022-08-21T14:29:27;5.32;;;2.45;;
20056;SDS011;10189;49.546;7.906;2022-08-21T14:31:59;3.50;;;2.67;;
20056;SDS011;10189;49.546;7.906;2022-08-21T14:34:45;4.03;;;2.90;;
20056;SDS011;10189;49.546;7.906;2022-08-21T14:37:11;14.90;;;13.30;;
20056;SDS011;10189;49.546;7.906;2022-08-21T14:39:37;7.75;;;3.53;;
20056;SDS011;10189;49.546;7.906;2022-08-21T14:42:04;6.32;;;2.90;;
20056;SDS011;10189;49.546;7.906;2022-08-21T14:44:30;4.28;;;2.50;;
20056;SDS011;10189;49.546;7.906;2022-08-21T14:46:58;5.82;;;2.50;;
20056;SDS011;10189;49.546;7.906;2022-08-21T14:49:25;6.07;;;2.47;;
20056;SDS011;10189;49.546;7.906;2022-08-21T14:51:57;5.82;;;2.70;;
20056;SDS011;10189;49.546;7.906;2022-08-21T14:54:24;5.45;;;2.85;;
20056;SDS011;10189;49.546;7.906;2022-08-21T14:56:56;5.28;;;2.85;;
20056;SDS011;10189;49.546;7.906;2022-08-21T14:59:32;4.07;;;2.40;;
20056;SDS011;10189;49.546;7.906;2022-08-21T15:01:59;5.90;;;2.63;;
20056;SDS011;10189;49.546;7.906;2022-08-21T15:04:26;3.70;;;2.42;;
20056;SDS011;10189;49.546;7.906;2022-08-21T15:06:52;4.40;;;2.80;;
20056;SDS011;10189;49.546;7.906;2022-08-21T15:09:18;6.45;;;2.40;;
20056;SDS011;10189;49.546;7.906;2022-08-21T15:11:43;4.43;;;2.50;;
20056;SDS011;10189;49.546;7.906;2022-08-21T15:14:10;5.65;;;2.80;;
20056;SDS011;10189;49.546;7.906;2022-08-21T15:16:47;4.28;;;2.65;;
20056;SDS011;10189;49.546;7.906;2022-08-21T15:19:13;6.88;;;2.78;;
20056;SDS011;10189;49.546;7.906;2022-08-21T15:21:39;4.35;;;2.63;;
20056;SDS011;10189;49.546;7.906;2022-08-21T15:24:05;5.55;;;2.88;;
20056;SDS011;10189;49.546;7.906;2022-08-21T15:26:31;5.10;;;2.50;;
20056;SDS011;10189;49.546;7.906;2022-08-21T15:28:59;4.13;;;2.58;;
20056;SDS011;10189;49.546;7.906;2022-08-21T15:31:25;4.68;;;2.97;;
20056;SDS011;10189;49.546;7.906;2022-08-21T15:33:52;4.78;;;2.70;;
20056;SDS011;10189;49.546;7.906;2022-08-21T15:36:19;5.05;;;2.80;;
20056;SDS011;10189;49.546;7.906;2022-08-21T15:38:44;5.72;;;2.78;;
20056;SDS011;10189;49.546;7.906;2022-08-21T15:41:10;4.45;;;2.58;;
20056;SDS011;10189;49.546;7.906;2022-08-21T15:43:41;5.03;;;2.70;;
20056;SDS011;10189;49.546;7.906;2022-08-21T15:46:12;4.22;;;2.67;;
20056;SDS011;10189;49.546;7.906;2022-08-21T15:48:40;5.10;;;2.78;;
20056;SDS011;10189;49.546;7.906;2022-08-21T15:51:06;5.28;;;3.25;;
20056;SDS011;10189;49.546;7.906;2022-08-21T15:53:34;10.68;;;7.07;;
20056;SDS011;10189;49.546;7.906;2022-08-21T15:56:02;6.53;;;3.20;;
20056;SDS011;10189;49.546;7.906;2022-08-21T15:58:28;4.38;;;2.50;;
20056;SDS011;10189;49.546;7.906;2022-08-21T16:00:54;5.85;;;2.50;;
20056;SDS011;10189;49.546;7.906;2022-08-21T16:03:25;4.63;;;2.70;;
20056;SDS011;10189;49.546;7.906;2022-08-21T16:05:51;5.07;;;2.83;;
20056;SDS011;10189;49.546;7.906;2022-08-21T16:08:18;5.90;;;2.97;;
20056;SDS011;10189;49.546;7.906;2022-08-21T16:10:45;3.55;;;2.60;;
20056;SDS011;10189;49.546;7.906;2022-08-21T16:13:15;4.68;;;2.45;;
20056;SDS011;10189;49.546;7.906;2022-08-21T16:15:48;6.63;;;2.97;;
20056;SDS011;10189;49.546;7.906;2022-08-21T16:18:15;5.47;;;2.92;;
20056;SDS011;10189;49.546;7.906;2022-08-21T16:20:43;5.57;;;2.85;;
20056;SDS011;10189;49.546;7.906;2022-08-21T16:23:09;18.23;;;14.95;;
20056;SDS011;10189;49.546;7.906;2022-08-21T16:25:36;9.70;;;7.70;;
20056;SDS011;10189;49.546;7.906;2022-08-21T16:28:04;4.55;;;3.10;;
20056;SDS011;10189;49.546;7.906;2022-08-21T16:30:33;4.10;;;2.30;;
20056;SDS011;10189;49.546;7.906;2022-08-21T16:33:00;7.82;;;3.03;;
20056;SDS011;10189;49.546;7.906;2022-08-21T16:35:28;4.68;;;2.60;;
20056;SDS011;10189;49.546;7.906;2022-08-21T16:37:55;5.78;;;2.80;;
20056;SDS011;10189;49.546;7.906;2022-08-21T16:40:22;5.40;;;2.65;;
20056;SDS011;10189;49.546;7.906;2022-08-21T16:42:51;5.53;;;2.42;;
20056;SDS011;10189;49.546;7.906;2022-08-21T16:45:18;4.65;;;2.70;;